Time;durP1;ratioP1;P1;durP2;ratioP2;P2;SDS_P1;SDS_P2;PMS_P1;PMS_P2;Temp;Humidity;BMP_temperature;BMP_pressure;BME280_temperature;BME280_humidity;BME280_pressure;Samples;Min_cycle;Max_cycle;Signal;HPM_P1;HPM_P2
2022/05/23 00:02:04;;;;;;;17.75;3.85;;;;;;;;;;5120009;27;20121;-49
2022/05/23 00:04:30;;;;;;;19.40;3.72;;;;;;;;;;5120030;27;20056;-52
2022/05/23 00:06:55;;;;;;;8.55;3.10;;;;;;;;;;5116351;27;20466;-46
2022/05/23 00:09:21;;;;;;;11.43;3.33;;;;;;;;;;5115368;27;20036;-48
2022/05/23 00:11:46;;;;;;;9.38;4.43;;;;;;;;;;5114082;27;20487;-44
2022/05/23 00:14:12;;;;;;;17.15;5.20;;;;;;;;;;5114209;27;20483;-51
2022/05/23 00:16:40;;;;;;;5.07;3.25;;;;;;;;;;5115155;27;20047;-49
2022/05/23 00:19:06;;;;;;;10.18;3.85;;;;;;;;;;5113132;27;20107;-50
2022/05/23 00:21:31;;;;;;;10.73;4.60;;;;;;;;;;5119874;27;20042;-50
2022/05/23 00:23:57;;;;;;;6.88;4.10;;;;;;;;;;5109939;27;20099;-47
2022/05/23 00:26:23;;;;;;;10.23;3.70;;;;;;;;;;5108524;27;20055;-47
2022/05/23 00:28:48;;;;;;;12.02;4.35;;;;;;;;;;5114337;27;20054;-50
2022/05/23 00:31:14;;;;;;;6.45;3.53;;;;;;;;;;5116493;27;20055;-47
2022/05/23 00:36:25;;;;;;;4.57;2.72;;;;;;;;;;5118314;27;20068;-49
2022/05/23 00:38:50;;;;;;;14.27;4.00;;;;;;;;;;5113842;27;20436;-46
2022/05/23 00:44:02;;;;;;;8.48;2.75;;;;;;;;;;5117665;27;20131;-49
2022/05/23 00:46:27;;;;;;;7.43;3.70;;;;;;;;;;5106960;27;20051;-46
2022/05/23 00:48:53;;;;;;;10.10;3.35;;;;;;;;;;5118273;27;20039;-47
2022/05/23 00:51:18;;;;;;;9.10;2.53;;;;;;;;;;5119659;27;20062;-50
2022/05/23 00:53:50;;;;;;;17.83;3.40;;;;;;;;;;5107145;27;20142;-49
2022/05/23 00:56:16;;;;;;;8.55;2.60;;;;;;;;;;5097835;27;20050;-51
2022/05/23 00:58:53;;;;;;;11.02;2.85;;;;;;;;;;5113331;27;20043;-47
2022/05/23 01:01:22;;;;;;;5.93;2.75;;;;;;;;;;5098098;27;20054;-50
2022/05/23 01:03:47;;;;;;;7.88;2.92;;;;;;;;;;5113906;27;20051;-49
2022/05/23 01:06:13;;;;;;;9.45;3.28;;;;;;;;;;5103329;27;20047;-45
2022/05/23 01:08:39;;;;;;;9.70;3.40;;;;;;;;;;5112239;27;20055;-47
2022/05/23 01:11:05;;;;;;;12.25;4.22;;;;;;;;;;5111783;27;20596;-48
2022/05/23 01:13:31;;;;;;;12.75;4.35;;;;;;;;;;5113452;27;20055;-46
2022/05/23 01:15:56;;;;;;;6.15;3.38;;;;;;;;;;5113300;27;20050;-51
2022/05/23 01:18:21;;;;;;;11.80;3.92;;;;;;;;;;5116973;27;20122;-48
2022/05/23 01:20:51;;;;;;;7.47;3.83;;;;;;;;;;5115828;27;20146;-48
2022/05/23 01:23:39;;;;;;;26.00;4.83;;;;;;;;;;5092984;28;20043;-44
2022/05/23 01:26:04;;;;;;;9.30;3.75;;;;;;;;;;5113321;27;20444;-51
2022/05/23 01:28:40;;;;;;;7.70;4.68;;;;;;;;;;5117398;27;20575;-49
2022/05/23 01:31:06;;;;;;;5.95;4.40;;;;;;;;;;5118573;27;20534;-48
2022/05/23 01:33:32;;;;;;;6.10;3.58;;;;;;;;;;5115990;27;20044;-46
2022/05/23 01:35:57;;;;;;;12.93;3.40;;;;;;;;;;5117175;27;20055;-46
2022/05/23 01:38:23;;;;;;;10.05;2.95;;;;;;;;;;5112364;27;20047;-46
2022/05/23 01:40:49;;;;;;;14.45;3.60;;;;;;;;;;5111883;27;20053;-47
2022/05/23 01:43:15;;;;;;;9.13;3.63;;;;;;;;;;5107329;27;20048;-47
2022/05/23 01:45:40;;;;;;;4.93;2.22;;;;;;;;;;5103058;27;20052;-47
2022/05/23 01:48:07;;;;;;;5.03;2.92;;;;;;;;;;5111194;27;20172;-48
2022/05/23 01:50:32;;;;;;;8.63;2.90;;;;;;;;;;5107047;27;20055;-47
2022/05/23 01:52:58;;;;;;;14.68;4.28;;;;;;;;;;5117883;27;20508;-47
2022/05/23 01:55:23;;;;;;;9.07;3.67;;;;;;;;;;5119192;27;20126;-51
2022/05/23 01:57:48;;;;;;;9.43;3.17;;;;;;;;;;5117964;27;20043;-49
2022/05/23 02:02:58;;;;;;;5.88;3.30;;;;;;;;;;5118946;27;20078;-48
2022/05/23 02:05:27;;;;;;;10.73;3.15;;;;;;;;;;5114855;27;20055;-49
2022/05/23 02:07:53;;;;;;;12.70;4.55;;;;;;;;;;5114962;27;20071;-48
2022/05/23 02:10:18;;;;;;;12.98;3.85;;;;;;;;;;5119344;27;20047;-51
2022/05/23 02:12:44;;;;;;;4.63;2.20;;;;;;;;;;5103559;27;20055;-50
2022/05/23 02:15:09;;;;;;;15.68;3.35;;;;;;;;;;5115182;27;20051;-47
2022/05/23 02:17:34;;;;;;;16.13;4.00;;;;;;;;;;5112105;27;20052;-48
2022/05/23 02:20:00;;;;;;;7.22;3.42;;;;;;;;;;5110184;28;20130;-48
2022/05/23 02:22:25;;;;;;;8.52;3.47;;;;;;;;;;5104552;27;20051;-51
2022/05/23 02:24:51;;;;;;;3.65;2.33;;;;;;;;;;5103783;28;20126;-49
2022/05/23 02:27:16;;;;;;;3.78;2.58;;;;;;;;;;5117768;28;20051;-47
2022/05/23 02:29:41;;;;;;;3.65;2.60;;;;;;;;;;5117097;28;20078;-48
2022/05/23 02:32:07;;;;;;;6.32;2.50;;;;;;;;;;5106107;28;20507;-47
2022/05/23 02:34:33;;;;;;;7.95;3.88;;;;;;;;;;5111899;27;20097;-52
2022/05/23 02:36:58;;;;;;;4.70;1.98;;;;;;;;;;5110012;28;20077;-50
2022/05/23 02:39:23;;;;;;;9.18;3.03;;;;;;;;;;5119342;27;20486;-47
2022/05/23 02:41:50;;;;;;;8.93;3.15;;;;;;;;;;5119833;27;20130;-46
2022/05/23 02:44:15;;;;;;;6.13;3.17;;;;;;;;;;5120733;27;20045;-49
2022/05/23 02:46:41;;;;;;;5.95;2.75;;;;;;;;;;5119030;27;20058;-49
2022/05/23 02:49:06;;;;;;;6.53;3.05;;;;;;;;;;5117351;27;20049;-49
2022/05/23 02:51:32;;;;;;;6.93;3.65;;;;;;;;;;5119491;27;20100;-52
2022/05/23 02:53:57;;;;;;;8.57;2.60;;;;;;;;;;5121134;27;20051;-49
2022/05/23 02:56:22;;;;;;;6.38;2.05;;;;;;;;;;5119017;27;20092;-49
2022/05/23 02:58:48;;;;;;;5.25;2.72;;;;;;;;;;5113541;27;20102;-47
2022/05/23 03:01:13;;;;;;;7.28;3.30;;;;;;;;;;5108012;27;20036;-49
2022/05/23 03:03:39;;;;;;;10.68;3.10;;;;;;;;;;5106678;27;20717;-48
2022/05/23 03:06:05;;;;;;;9.57;2.78;;;;;;;;;;5115217;27;20123;-47
2022/05/23 03:08:30;;;;;;;7.85;3.60;;;;;;;;;;5122061;27;20078;-43
2022/05/23 03:10:58;;;;;;;9.45;3.85;;;;;;;;;;5108130;27;20130;-45
2022/05/23 03:13:24;;;;;;;6.55;2.38;;;;;;;;;;5111779;27;20040;-48
2022/05/23 03:15:49;;;;;;;4.78;2.67;;;;;;;;;;5113294;27;20043;-46
2022/05/23 03:18:14;;;;;;;11.75;4.40;;;;;;;;;;5118073;27;20739;-48
2022/05/23 03:20:40;;;;;;;7.18;3.83;;;;;;;;;;5110227;27;20132;-48
2022/05/23 03:28:34;;;;;;;9.85;3.67;;;;;;;;;;5124455;27;20059;-49
2022/05/23 03:30:59;;;;;;;11.45;2.97;;;;;;;;;;5118498;27;20047;-50
2022/05/23 03:33:25;;;;;;;8.23;3.50;;;;;;;;;;5109888;27;20393;-49
2022/05/23 03:35:50;;;;;;;6.30;4.00;;;;;;;;;;5118981;27;20058;-53
2022/05/23 03:38:16;;;;;;;14.27;5.30;;;;;;;;;;5119688;27;20095;-49
2022/05/23 03:40:41;;;;;;;8.75;3.80;;;;;;;;;;5116489;27;20044;-48
2022/05/23 03:43:07;;;;;;;7.00;4.05;;;;;;;;;;5116972;27;20043;-50
2022/05/23 03:45:33;;;;;;;22.55;5.50;;;;;;;;;;5117645;27;20055;-48
2022/05/23 03:48:00;;;;;;;11.30;3.28;;;;;;;;;;5110808;27;20408;-48
2022/05/23 03:50:26;;;;;;;11.63;2.83;;;;;;;;;;5099131;27;20051;-49
2022/05/23 03:52:52;;;;;;;8.65;3.15;;;;;;;;;;5120000;27;20093;-50
2022/05/23 03:55:17;;;;;;;9.75;4.40;;;;;;;;;;5118026;27;20043;-49
2022/05/23 03:57:43;;;;;;;14.57;6.25;;;;;;;;;;5116836;27;20758;-52
2022/05/23 04:00:09;;;;;;;5.78;3.17;;;;;;;;;;5116757;27;20051;-47
2022/05/23 04:02:34;;;;;;;10.00;4.43;;;;;;;;;;5112970;27;20563;-48
2022/05/23 04:05:00;;;;;;;10.93;3.67;;;;;;;;;;5119096;27;20108;-51
2022/05/23 04:07:26;;;;;;;5.70;3.33;;;;;;;;;;5117594;27;20154;-52
2022/05/23 04:09:51;;;;;;;16.02;3.95;;;;;;;;;;5117313;27;20063;-50
2022/05/23 04:12:16;;;;;;;8.80;3.60;;;;;;;;;;5115762;27;20077;-47
2022/05/23 04:14:42;;;;;;;11.88;4.75;;;;;;;;;;5112071;27;20032;-47
2022/05/23 04:17:08;;;;;;;14.05;3.70;;;;;;;;;;5111363;27;20627;-49
2022/05/23 04:19:33;;;;;;;10.93;4.40;;;;;;;;;;5117445;27;20039;-50
2022/05/23 04:21:58;;;;;;;9.27;3.38;;;;;;;;;;5120336;27;20063;-50
2022/05/23 04:24:24;;;;;;;23.05;5.13;;;;;;;;;;5111232;27;20573;-47
2022/05/23 04:26:53;;;;;;;10.95;4.55;;;;;;;;;;5118223;27;20512;-50
2022/05/23 04:29:19;;;;;;;11.57;4.72;;;;;;;;;;5120450;27;20050;-47
2022/05/23 04:31:44;;;;;;;10.52;4.32;;;;;;;;;;5121935;27;20138;-51
2022/05/23 04:36:53;;;;;;;12.25;5.05;;;;;;;;;;5112325;27;20526;-46
2022/05/23 04:39:19;;;;;;;10.80;4.53;;;;;;;;;;5111778;27;20035;-49
2022/05/23 04:41:44;;;;;;;9.65;5.32;;;;;;;;;;5107252;27;20046;-50
2022/05/23 04:44:09;;;;;;;16.88;4.70;;;;;;;;;;5119328;27;20043;-45
2022/05/23 04:46:35;;;;;;;6.10;4.35;;;;;;;;;;5121169;27;20099;-50
2022/05/23 04:51:44;;;;;;;24.15;5.93;;;;;;;;;;5121277;27;20058;-49
2022/05/23 04:54:10;;;;;;;12.48;5.90;;;;;;;;;;5113432;27;20055;-47
2022/05/23 04:56:37;;;;;;;11.07;4.47;;;;;;;;;;5113686;27;20095;-48
2022/05/23 04:59:02;;;;;;;9.02;4.75;;;;;;;;;;5117577;27;20028;-50
2022/05/23 05:01:28;;;;;;;9.68;4.20;;;;;;;;;;5117968;27;20037;-47
2022/05/23 05:03:55;;;;;;;8.70;5.25;;;;;;;;;;5114643;27;20508;-47
2022/05/23 05:06:22;;;;;;;8.68;4.25;;;;;;;;;;5112985;27;20365;-47
2022/05/23 05:08:47;;;;;;;16.73;4.40;;;;;;;;;;5109227;27;20149;-46
2022/05/23 05:11:13;;;;;;;17.92;4.07;;;;;;;;;;5120211;27;20127;-46
2022/05/23 05:13:39;;;;;;;6.45;3.85;;;;;;;;;;5121870;27;20130;-48
2022/05/23 05:16:05;;;;;;;7.20;5.03;;;;;;;;;;5116078;27;20047;-47
2022/05/23 05:18:31;;;;;;;19.38;5.25;;;;;;;;;;5118245;27;20485;-50
2022/05/23 05:20:56;;;;;;;14.52;5.47;;;;;;;;;;5120094;27;20502;-49
2022/05/23 05:23:22;;;;;;;8.30;4.28;;;;;;;;;;5105725;27;20131;-47
2022/05/23 05:25:51;;;;;;;9.90;5.28;;;;;;;;;;5115431;27;20495;-46
2022/05/23 05:28:16;;;;;;;10.52;5.50;;;;;;;;;;5116900;27;20082;-51
2022/05/23 05:30:44;;;;;;;14.50;4.63;;;;;;;;;;5112530;27;20047;-52
2022/05/23 05:33:12;;;;;;;15.38;5.03;;;;;;;;;;5110032;27;20047;-50
2022/05/23 05:35:39;;;;;;;26.98;5.40;;;;;;;;;;5111466;27;20122;-49
2022/05/23 05:38:04;;;;;;;15.20;5.82;;;;;;;;;;5119489;27;20054;-49
2022/05/23 05:40:30;;;;;;;9.85;4.50;;;;;;;;;;5118590;27;20039;-53
2022/05/23 05:43:01;;;;;;;14.20;4.25;;;;;;;;;;5118641;27;20144;-50
2022/05/23 05:45:30;;;;;;;6.60;3.88;;;;;;;;;;5119957;27;20043;-51
2022/05/23 05:47:56;;;;;;;14.88;5.43;;;;;;;;;;5117912;27;20028;-50
2022/05/23 05:50:24;;;;;;;6.85;4.50;;;;;;;;;;5118459;27;20410;-49
2022/05/23 05:52:51;;;;;;;17.20;3.78;;;;;;;;;;5116667;27;20091;-53
2022/05/23 05:55:16;;;;;;;11.30;6.22;;;;;;;;;;5117831;27;20233;-46
2022/05/23 05:57:41;;;;;;;11.13;4.07;;;;;;;;;;5116935;27;20744;-47
2022/05/23 06:00:07;;;;;;;7.55;4.80;;;;;;;;;;5112910;27;20031;-47
2022/05/23 06:02:33;;;;;;;14.63;7.35;;;;;;;;;;5108092;27;20043;-48
2022/05/23 06:04:58;;;;;;;6.45;4.53;;;;;;;;;;5106596;27;20130;-47
2022/05/23 06:12:52;;;;;;;10.82;4.57;;;;;;;;;;5116237;27;20042;-49
2022/05/23 06:15:17;;;;;;;14.90;7.78;;;;;;;;;;5110657;27;20114;-51
2022/05/23 06:17:43;;;;;;;15.68;6.25;;;;;;;;;;5117192;27;20043;-49
2022/05/23 06:20:10;;;;;;;14.43;6.70;;;;;;;;;;5113923;28;21366;-50
2022/05/23 06:22:35;;;;;;;16.38;6.18;;;;;;;;;;5108249;28;20520;-51
2022/05/23 06:25:02;;;;;;;14.65;6.38;;;;;;;;;;5106575;28;20055;-49
2022/05/23 06:27:28;;;;;;;5.65;3.67;;;;;;;;;;5117831;28;20059;-51
2022/05/23 06:29:53;;;;;;;8.07;4.50;;;;;;;;;;5111939;27;20031;-49
2022/05/23 06:32:18;;;;;;;6.20;4.10;;;;;;;;;;5117818;28;20054;-48
2022/05/23 06:34:44;;;;;;;20.00;10.45;;;;;;;;;;5118905;28;20600;-49
2022/05/23 06:37:09;;;;;;;9.82;5.85;;;;;;;;;;5115086;27;20074;-50
2022/05/23 06:39:34;;;;;;;12.73;5.03;;;;;;;;;;5117875;28;20495;-49
2022/05/23 06:41:59;;;;;;;41.67;7.30;;;;;;;;;;5115124;28;20082;-46
2022/05/23 06:44:25;;;;;;;9.88;5.25;;;;;;;;;;5119518;27;20066;-48
2022/05/23 06:46:50;;;;;;;17.85;12.45;;;;;;;;;;5116658;28;20100;-46
2022/05/23 06:49:15;;;;;;;12.15;7.57;;;;;;;;;;5108668;27;20043;-49
2022/05/23 06:51:41;;;;;;;20.15;7.75;;;;;;;;;;5112023;28;20032;-43
2022/05/23 06:54:06;;;;;;;9.98;7.47;;;;;;;;;;5106395;28;20087;-48
2022/05/23 06:56:32;;;;;;;12.43;6.15;;;;;;;;;;5117351;28;20043;-47
2022/05/23 06:58:58;;;;;;;6.35;5.07;;;;;;;;;;5113260;28;20113;-49
2022/05/23 07:01:23;;;;;;;20.40;8.82;;;;;;;;;;5116676;28;20408;-46
2022/05/23 07:03:48;;;;;;;13.30;5.45;;;;;;;;;;5109606;28;20040;-48
2022/05/23 07:14:26;;;;;;;31.42;8.65;;;;;;;;;;5108215;28;20058;-51
2022/05/23 07:16:52;;;;;;;14.65;9.57;;;;;;;;;;5117390;28;20552;-49
2022/05/23 07:19:18;;;;;;;17.10;7.07;;;;;;;;;;5111611;28;20051;-52
2022/05/23 07:21:43;;;;;;;10.10;4.78;;;;;;;;;;5111051;28;20089;-50
2022/05/23 07:24:08;;;;;;;22.17;10.65;;;;;;;;;;5117132;28;20039;-51
2022/05/23 07:26:35;;;;;;;10.68;6.13;;;;;;;;;;5113866;27;20142;-48
2022/05/23 07:29:00;;;;;;;12.05;4.45;;;;;;;;;;5118091;27;20054;-49
2022/05/23 07:31:26;;;;;;;6.00;4.47;;;;;;;;;;5120398;27;20130;-48
2022/05/23 07:33:51;;;;;;;12.82;5.63;;;;;;;;;;5107302;27;20086;-48
2022/05/23 07:36:18;;;;;;;18.17;6.05;;;;;;;;;;5122465;27;20044;-51
2022/05/23 07:38:44;;;;;;;12.68;4.72;;;;;;;;;;5123064;27;20046;-48
2022/05/23 07:41:10;;;;;;;18.30;8.27;;;;;;;;;;5117380;27;20130;-49
2022/05/23 07:43:36;;;;;;;6.00;4.00;;;;;;;;;;5123555;27;20081;-49
2022/05/23 07:46:12;;;;;;;18.02;8.25;;;;;;;;;;5122235;27;20047;-50
2022/05/23 07:48:41;;;;;;;6.90;4.95;;;;;;;;;;5122354;27;20116;-46
2022/05/23 07:51:08;;;;;;;9.18;5.10;;;;;;;;;;5120533;27;20499;-50
2022/05/23 08:01:47;;;;;;;6.38;2.60;;;;;;;;;;5121845;27;20070;-49
2022/05/23 08:04:12;;;;;;;10.32;6.35;;;;;;;;;;5119160;27;20036;-52
2022/05/23 08:06:37;;;;;;;22.92;10.05;;;;;;;;;;5121622;27;20054;-47
2022/05/23 08:09:03;;;;;;;13.75;5.00;;;;;;;;;;5118725;27;20130;-51
2022/05/23 08:11:28;;;;;;;16.63;8.63;;;;;;;;;;5120240;27;20043;-45
2022/05/23 08:13:55;;;;;;;11.40;4.63;;;;;;;;;;5112365;27;20068;-46
2022/05/23 08:16:20;;;;;;;18.75;7.50;;;;;;;;;;5104350;27;20051;-51
2022/05/23 08:18:46;;;;;;;25.00;6.75;;;;;;;;;;5119083;27;20080;-47
2022/05/23 08:21:11;;;;;;;8.40;5.10;;;;;;;;;;5123858;27;20051;-50
2022/05/23 08:23:36;;;;;;;12.70;6.20;;;;;;;;;;5115250;27;20140;-50
2022/05/23 08:26:02;;;;;;;8.95;4.07;;;;;;;;;;5121753;27;20754;-47
2022/05/23 08:28:28;;;;;;;11.18;4.10;;;;;;;;;;5118500;27;20044;-49
2022/05/23 08:30:54;;;;;;;8.00;3.60;;;;;;;;;;5117256;27;20597;-51
2022/05/23 08:33:19;;;;;;;5.03;3.08;;;;;;;;;;5117310;27;20127;-45
2022/05/23 08:35:45;;;;;;;13.70;3.47;;;;;;;;;;5122084;27;20135;-51
2022/05/23 08:38:10;;;;;;;3.53;2.97;;;;;;;;;;5123009;27;20039;-49
2022/05/23 08:40:43;;;;;;;5.00;3.67;;;;;;;;;;5121964;27;20119;-52
2022/05/23 08:43:09;;;;;;;9.20;4.65;;;;;;;;;;5116893;27;20091;-51
2022/05/23 08:45:37;;;;;;;26.67;7.65;;;;;;;;;;5111578;27;20519;-48
2022/05/23 08:48:15;;;;;;;22.98;4.43;;;;;;;;;;5119223;27;20514;-52
2022/05/23 08:50:59;;;;;;;7.93;4.80;;;;;;;;;;5121270;27;20500;-50
2022/05/23 08:53:37;;;;;;;10.13;3.35;;;;;;;;;;5115339;27;20128;-49
2022/05/23 08:56:12;;;;;;;78.45;17.13;;;;;;;;;;5109445;27;20107;-46
2022/05/23 08:58:41;;;;;;;30.13;9.10;;;;;;;;;;5120516;27;20043;-50
2022/05/23 09:01:16;;;;;;;26.15;6.40;;;;;;;;;;5110123;27;20448;-52
2022/05/23 09:03:48;;;;;;;21.65;6.72;;;;;;;;;;5097970;27;20088;-51
2022/05/23 09:06:34;;;;;;;4.50;2.88;;;;;;;;;;5116802;27;20038;-50
2022/05/23 09:09:01;;;;;;;10.18;2.30;;;;;;;;;;5122311;27;20031;-49
2022/05/23 09:11:34;;;;;;;16.80;4.53;;;;;;;;;;5121887;27;20031;-51
2022/05/23 09:14:00;;;;;;;20.65;5.85;;;;;;;;;;5119825;27;20047;-50
2022/05/23 09:16:27;;;;;;;3.40;2.67;;;;;;;;;;5116758;27;20065;-49
2022/05/23 09:18:56;;;;;;;11.00;3.55;;;;;;;;;;5118024;27;20434;-48
2022/05/23 09:22:12;;;;;;;12.18;4.32;;;;;;;;;;5118493;27;20100;-48
2022/05/23 09:24:07;;;;;;;15.10;3.60;;;;;;;;;;5117216;27;20081;-52
2022/05/23 09:26:32;;;;;;;36.33;6.57;;;;;;;;;;5115694;27;20135;-45
2022/05/23 09:28:57;;;;;;;19.35;5.40;;;;;;;;;;5116526;27;20047;-47
2022/05/23 09:31:25;;;;;;;2.67;1.55;;;;;;;;;;5113175;27;20055;-47
2022/05/23 09:33:52;;;;;;;17.35;4.95;;;;;;;;;;5110556;27;20054;-50
2022/05/23 09:36:23;;;;;;;3.20;2.20;;;;;;;;;;5115160;27;20491;-50
2022/05/23 09:38:51;;;;;;;4.50;2.75;;;;;;;;;;5116757;27;20130;-48
2022/05/23 09:41:28;;;;;;;5.30;2.88;;;;;;;;;;5109610;27;20047;-46
2022/05/23 09:49:23;;;;;;;5.00;1.63;;;;;;;;;;5115982;27;20075;-52
2022/05/23 09:51:49;;;;;;;9.00;5.15;;;;;;;;;;5114911;27;20074;-51
2022/05/23 09:54:25;;;;;;;12.35;7.40;;;;;;;;;;5103105;27;20096;-50
2022/05/23 09:56:51;;;;;;;11.88;3.90;;;;;;;;;;5111483;27;20445;-50
2022/05/23 09:59:25;;;;;;;7.90;3.95;;;;;;;;;;5100244;27;20051;-50
2022/05/23 10:01:50;;;;;;;11.40;3.72;;;;;;;;;;5101636;28;20552;-43
2022/05/23 10:04:27;;;;;;;8.23;3.30;;;;;;;;;;5106921;27;20082;-44
2022/05/23 10:06:52;;;;;;;6.00;2.25;;;;;;;;;;5108170;27;20531;-39
2022/05/23 10:09:23;;;;;;;10.65;4.07;;;;;;;;;;5113959;27;20047;-41
2022/05/23 10:12:08;;;;;;;12.65;3.22;;;;;;;;;;5104498;27;20043;-44
2022/05/23 10:14:42;;;;;;;19.48;6.20;;;;;;;;;;5107523;27;20415;-40
2022/05/23 10:17:08;;;;;;;8.27;2.60;;;;;;;;;;5119611;27;20491;-40
2022/05/23 10:19:35;;;;;;;5.82;3.58;;;;;;;;;;5113974;28;20455;-41
2022/05/23 10:22:18;;;;;;;2.92;1.63;;;;;;;;;;5112189;27;20039;-40
2022/05/23 10:24:50;;;;;;;6.05;3.58;;;;;;;;;;5114132;28;20092;-40
2022/05/23 10:27:18;;;;;;;8.50;3.25;;;;;;;;;;5110807;28;20947;-40
2022/05/23 10:29:53;;;;;;;6.03;2.47;;;;;;;;;;5118886;28;20112;-41
2022/05/23 10:32:27;;;;;;;4.43;2.08;;;;;;;;;;5120383;28;20130;-42
2022/05/23 10:34:56;;;;;;;4.78;3.08;;;;;;;;;;5116352;28;20162;-41
2022/05/23 10:37:23;;;;;;;11.65;3.95;;;;;;;;;;5115547;28;20044;-43
2022/05/23 10:42:43;;;;;;;6.60;2.22;;;;;;;;;;5112188;28;20097;-45
2022/05/23 10:45:28;;;;;;;1.90;1.27;;;;;;;;;;5104331;28;20047;-42
2022/05/23 10:47:59;;;;;;;4.45;1.92;;;;;;;;;;5108731;28;20039;-43
2022/05/23 10:50:33;;;;;;;2.03;1.35;;;;;;;;;;5111381;28;20032;-41
2022/05/23 10:53:17;;;;;;;6.30;3.08;;;;;;;;;;5111201;28;20051;-45
2022/05/23 10:55:46;;;;;;;4.38;3.05;;;;;;;;;;5118478;28;20047;-40
2022/05/23 10:58:30;;;;;;;3.65;2.17;;;;;;;;;;5114159;28;20583;-41
2022/05/23 11:01:03;;;;;;;8.25;2.25;;;;;;;;;;5118563;27;20043;-45
2022/05/23 11:03:47;;;;;;;9.23;2.85;;;;;;;;;;5115768;27;20424;-42
2022/05/23 11:06:30;;;;;;;13.73;3.75;;;;;;;;;;5111971;27;20051;-40
2022/05/23 11:09:22;;;;;;;3.40;2.53;;;;;;;;;;5117188;27;20089;-47
2022/05/23 11:11:51;;;;;;;9.77;4.55;;;;;;;;;;5095076;27;20562;-46
2022/05/23 11:14:19;;;;;;;8.95;3.42;;;;;;;;;;5122436;27;20152;-40
2022/05/23 11:17:07;;;;;;;7.18;3.50;;;;;;;;;;5123339;27;20055;-39
2022/05/23 11:19:38;;;;;;;6.18;2.72;;;;;;;;;;5109965;27;20039;-42
2022/05/23 11:22:03;;;;;;;4.32;2.47;;;;;;;;;;5115634;27;20076;-53
2022/05/23 11:24:40;;;;;;;5.28;4.22;;;;;;;;;;5121327;27;20047;-53
2022/05/23 11:35:30;;;;;;;9.75;3.58;;;;;;;;;;5124057;27;20411;-53
2022/05/23 11:37:57;;;;;;;5.90;4.07;;;;;;;;;;5113889;27;20510;-55
2022/05/23 11:40:25;;;;;;;9.00;3.28;;;;;;;;;;5118203;27;20043;-53
2022/05/23 11:42:55;;;;;;;11.30;7.15;;;;;;;;;;5116047;27;20043;-54
2022/05/23 11:48:29;;;;;;;8.15;3.08;;;;;;;;;;5114124;27;20306;-52
2022/05/23 11:50:56;;;;;;;18.55;4.38;;;;;;;;;;5121138;27;20043;-53
2022/05/23 11:53:34;;;;;;;5.78;2.80;;;;;;;;;;5114333;27;20046;-51
2022/05/23 11:56:01;;;;;;;4.28;2.10;;;;;;;;;;5122954;27;20122;-52
2022/05/23 11:58:36;;;;;;;21.80;2.10;;;;;;;;;;5120694;27;20555;-54
2022/05/23 12:01:10;;;;;;;5.00;2.03;;;;;;;;;;5119221;27;20129;-51
2022/05/23 12:03:48;;;;;;;2.30;0.95;;;;;;;;;;5110924;27;20042;-54
2022/05/23 12:06:33;;;;;;;4.70;2.28;;;;;;;;;;5112975;27;20047;-54
2022/05/23 12:09:00;;;;;;;6.78;2.15;;;;;;;;;;5122580;27;20043;-54
2022/05/23 12:11:42;;;;;;;4.35;2.00;;;;;;;;;;5109967;27;20052;-51
2022/05/23 12:14:16;;;;;;;4.88;3.03;;;;;;;;;;5103263;27;20185;-54
2022/05/23 12:16:42;;;;;;;5.90;2.65;;;;;;;;;;5118053;27;20582;-54
2022/05/23 12:19:20;;;;;;;6.93;2.72;;;;;;;;;;5117840;27;20156;-56
2022/05/23 12:21:46;;;;;;;8.45;2.13;;;;;;;;;;5110472;27;20099;-54
2022/05/23 12:24:32;;;;;;;3.85;0.90;;;;;;;;;;5117981;27;20619;-57
2022/05/23 12:27:17;;;;;;;6.22;2.10;;;;;;;;;;5114651;27;20040;-57
2022/05/23 12:29:42;;;;;;;5.60;2.50;;;;;;;;;;5106294;27;20044;-55
2022/05/23 12:32:18;;;;;;;8.40;3.75;;;;;;;;;;5112838;27;20031;-56
2022/05/23 12:34:46;;;;;;;5.03;2.50;;;;;;;;;;5116628;27;20067;-59
2022/05/23 12:37:19;;;;;;;3.83;2.40;;;;;;;;;;5114743;27;20051;-58
2022/05/23 12:39:57;;;;;;;10.23;3.67;;;;;;;;;;5118861;27;20092;-58
2022/05/23 12:42:35;;;;;;;8.45;2.75;;;;;;;;;;5119651;27;20525;-58
2022/05/23 12:45:23;;;;;;;20.10;3.30;;;;;;;;;;5121446;27;20565;-57
2022/05/23 12:47:52;;;;;;;4.78;2.92;;;;;;;;;;5110245;27;20051;-56
2022/05/23 12:50:18;;;;;;;5.28;2.53;;;;;;;;;;5118619;27;20460;-55
2022/05/23 12:53:02;;;;;;;7.68;3.33;;;;;;;;;;5119554;27;20411;-56
2022/05/23 12:55:42;;;;;;;6.05;3.47;;;;;;;;;;5119970;27;20135;-55
2022/05/23 12:58:11;;;;;;;8.32;3.97;;;;;;;;;;5120119;27;20495;-56
2022/05/23 13:00:46;;;;;;;7.25;3.03;;;;;;;;;;5118712;27;20031;-52
2022/05/23 13:03:30;;;;;;;12.77;2.97;;;;;;;;;;5119844;27;20043;-53
2022/05/23 13:05:55;;;;;;;8.25;3.70;;;;;;;;;;5112757;27;20055;-52
2022/05/23 13:08:44;;;;;;;12.20;3.35;;;;;;;;;;5113815;27;20039;-50
2022/05/23 13:11:11;;;;;;;4.90;2.63;;;;;;;;;;5103647;27;20473;-55
2022/05/23 13:13:39;;;;;;;9.40;2.10;;;;;;;;;;5113844;27;20093;-55
2022/05/23 13:16:17;;;;;;;18.65;4.00;;;;;;;;;;5105302;27;20048;-54
2022/05/23 13:24:48;;;;;;;7.07;2.42;;;;;;;;;;5115453;27;20629;-54
2022/05/23 13:27:03;;;;;;;10.48;3.70;;;;;;;;;;5114445;27;20047;-53
2022/05/23 13:29:29;;;;;;;25.60;4.75;;;;;;;;;;5119206;27;20425;-55
2022/05/23 13:32:02;;;;;;;3.80;2.42;;;;;;;;;;5113160;27;20050;-54
2022/05/23 13:34:34;;;;;;;4.47;2.40;;;;;;;;;;5117078;27;20055;-55
2022/05/23 13:37:00;;;;;;;10.63;3.50;;;;;;;;;;5110110;27;20051;-52
2022/05/23 13:39:26;;;;;;;4.30;3.45;;;;;;;;;;5109189;27;20035;-55
2022/05/23 13:41:51;;;;;;;7.43;3.72;;;;;;;;;;5112579;27;20120;-54
2022/05/23 13:44:24;;;;;;;10.90;4.18;;;;;;;;;;5114032;27;20370;-55
2022/05/23 13:46:52;;;;;;;6.47;4.15;;;;;;;;;;5118400;27;20107;-55
2022/05/23 13:49:30;;;;;;;10.48;3.55;;;;;;;;;;5117293;27;20852;-55
2022/05/23 13:52:04;;;;;;;13.20;4.63;;;;;;;;;;5110277;27;20043;-55
2022/05/23 13:54:42;;;;;;;3.72;3.03;;;;;;;;;;5117846;27;20126;-52
2022/05/23 13:57:15;;;;;;;5.88;3.22;;;;;;;;;;5114050;27;20073;-54
2022/05/23 13:59:43;;;;;;;18.20;4.53;;;;;;;;;;5120699;27;20138;-54
2022/05/23 14:02:30;;;;;;;10.75;3.50;;;;;;;;;;5117800;27;20035;-50
2022/05/23 14:04:55;;;;;;;10.30;3.63;;;;;;;;;;5108096;27;20044;-53
2022/05/23 14:07:23;;;;;;;54.60;10.68;;;;;;;;;;5100415;27;20051;-54
2022/05/23 14:09:51;;;;;;;8.13;3.28;;;;;;;;;;5113453;27;20552;-48
2022/05/23 14:12:18;;;;;;;31.42;5.13;;;;;;;;;;5116885;27;20050;-53
2022/05/23 14:14:45;;;;;;;3.67;1.65;;;;;;;;;;5117956;28;20051;-55
2022/05/23 14:17:10;;;;;;;21.70;5.60;;;;;;;;;;5107039;27;20036;-53
2022/05/23 14:19:51;;;;;;;23.27;4.55;;;;;;;;;;5109316;27;20105;-52
2022/05/23 14:22:16;;;;;;;;;;;;;;;;;;5111354;27;20043;-52
2022/05/23 14:24:43;;;;;;;3.65;1.48;;;;;;;;;;5117108;28;19915;-53
2022/05/23 14:27:17;;;;;;;5.05;3.22;;;;;;;;;;5112921;28;20051;-50
2022/05/23 14:29:43;;;;;;;13.25;4.00;;;;;;;;;;5117671;28;20074;-52
2022/05/23 14:32:12;;;;;;;26.10;1.95;;;;;;;;;;5117346;28;20077;-54
2022/05/23 14:34:38;;;;;;;12.88;5.63;;;;;;;;;;5110768;27;20039;-49
2022/05/23 14:37:07;;;;;;;3.83;2.53;;;;;;;;;;5116941;27;20050;-54
2022/05/23 14:39:33;;;;;;;6.20;3.10;;;;;;;;;;5110257;27;20043;-53
2022/05/23 14:42:18;;;;;;;8.13;2.83;;;;;;;;;;5117822;27;20044;-53
2022/05/23 14:44:43;;;;;;;1.85;1.50;;;;;;;;;;5111649;27;20035;-52
2022/05/23 14:47:14;;;;;;;5.90;2.95;;;;;;;;;;5110003;27;20125;-51
2022/05/23 14:49:42;;;;;;;2.85;2.08;;;;;;;;;;5110724;27;20054;-54
2022/05/23 14:52:15;;;;;;;8.02;3.05;;;;;;;;;;5118324;27;20063;-53
2022/05/23 15:00:38;;;;;;;3.13;1.95;;;;;;;;;;5118097;27;20049;-54
2022/05/23 15:03:07;;;;;;;10.25;4.32;;;;;;;;;;5113310;27;20031;-53
2022/05/23 15:05:32;;;;;;;8.00;3.65;;;;;;;;;;5116713;27;20047;-52
2022/05/23 15:07:59;;;;;;;2.60;1.00;;;;;;;;;;5106659;27;20055;-54
2022/05/23 15:10:24;;;;;;;5.68;3.15;;;;;;;;;;5115791;27;20134;-54
2022/05/23 15:12:49;;;;;;;7.25;2.75;;;;;;;;;;5111273;27;20204;-51
2022/05/23 15:15:17;;;;;;;1.35;0.98;;;;;;;;;;5115229;27;20077;-53
2022/05/23 15:17:42;;;;;;;2.88;1.45;;;;;;;;;;5115500;27;20057;-52
2022/05/23 15:20:10;;;;;;;5.90;2.65;;;;;;;;;;5112125;27;20036;-54
2022/05/23 15:22:35;;;;;;;3.33;1.73;;;;;;;;;;5109290;27;20050;-53
2022/05/23 15:25:01;;;;;;;10.45;4.45;;;;;;;;;;5120672;27;20046;-51
2022/05/23 15:27:28;;;;;;;2.72;1.70;;;;;;;;;;5110093;27;20043;-52
2022/05/23 15:29:54;;;;;;;7.40;2.85;;;;;;;;;;5110545;27;20039;-51
2022/05/23 15:32:20;;;;;;;3.30;1.55;;;;;;;;;;5116620;27;20094;-52
2022/05/23 15:34:45;;;;;;;5.78;3.00;;;;;;;;;;5105634;27;20577;-52
2022/05/23 15:37:11;;;;;;;4.65;2.90;;;;;;;;;;5119885;27;20039;-54
2022/05/23 15:39:36;;;;;;;11.02;2.35;;;;;;;;;;5119655;27;20408;-54
2022/05/23 15:42:02;;;;;;;7.13;3.22;;;;;;;;;;5112962;27;20461;-54
2022/05/23 15:44:37;;;;;;;14.40;4.07;;;;;;;;;;5117613;27;20510;-55
2022/05/23 15:47:05;;;;;;;10.13;5.97;;;;;;;;;;5117457;27;20168;-55
2022/05/23 15:49:30;;;;;;;13.45;4.20;;;;;;;;;;5117588;27;20224;-54
2022/05/23 15:51:55;;;;;;;5.90;3.45;;;;;;;;;;5122680;27;20126;-55
2022/05/23 15:54:21;;;;;;;11.75;3.40;;;;;;;;;;5121463;27;20059;-54
2022/05/23 15:56:46;;;;;;;12.25;2.90;;;;;;;;;;5119280;27;20084;-55
2022/05/23 15:59:12;;;;;;;19.17;5.88;;;;;;;;;;5124792;27;20118;-55